createdAt,value
2018-02-25T00:02:02.218Z,-2.80
2018-02-25T00:04:29.675Z,-2.80
2018-02-25T00:06:57.143Z,-2.90
2018-02-25T00:09:24.608Z,-2.80
2018-02-25T00:11:52.079Z,-2.90
2018-02-25T00:14:19.538Z,-2.90
2018-02-25T00:16:47.764Z,-3.10
2018-02-25T00:19:15.226Z,-3.10
2018-02-25T00:21:42.714Z,-3.10
2018-02-25T00:24:10.263Z,-3.10
2018-02-25T00:26:37.729Z,-3.10
2018-02-25T00:29:05.194Z,-3.20
2018-02-25T00:31:33.421Z,-3.10
2018-02-25T00:34:00.888Z,-3.10
2018-02-25T00:36:28.354Z,-3.20
2018-02-25T00:38:55.810Z,-3.20
2018-02-25T00:41:23.261Z,-3.30
2018-02-25T00:43:50.732Z,-3.30
2018-02-25T00:46:18.223Z,-3.30
2018-02-25T00:48:45.673Z,-3.40
2018-02-25T00:51:13.922Z,-3.50
2018-02-25T00:53:41.381Z,-3.50
2018-02-25T00:56:08.852Z,-3.40
2018-02-25T00:58:37.087Z,-3.50
2018-02-25T01:01:04.550Z,-3.50
2018-02-25T01:03:32.057Z,-3.50
2018-02-25T01:05:59.543Z,-3.60
2018-02-25T01:08:27.002Z,-3.60
2018-02-25T01:10:55.217Z,-3.70
2018-02-25T01:13:23.454Z,-3.70
2018-02-25T01:15:50.932Z,-3.70
2018-02-25T01:18:18.385Z,-3.70
2018-02-25T01:20:45.857Z,-3.80
2018-02-25T01:23:14.077Z,-3.80
2018-02-25T01:25:41.546Z,-3.90
2018-02-25T01:28:09.030Z,-3.80
2018-02-25T01:30:36.491Z,-3.80
2018-02-25T01:33:03.949Z,-3.80
2018-02-25T01:35:31.415Z,-3.90
2018-02-25T01:37:59.651Z,-3.90
2018-02-25T01:40:27.107Z,-3.90
2018-02-25T01:42:54.565Z,-3.80
2018-02-25T01:45:22.021Z,-3.80
2018-02-25T01:47:49.464Z,-3.80
2018-02-25T01:50:16.947Z,-3.80
2018-02-25T01:52:44.403Z,-3.80
2018-02-25T01:55:11.861Z,-3.90
2018-02-25T01:57:39.327Z,-3.90
2018-02-25T02:00:07.552Z,-4.20
2018-02-25T02:02:35.014Z,-4.20
2018-02-25T02:05:02.495Z,-4.20
2018-02-25T02:07:29.973Z,-4.20
2018-02-25T02:09:57.423Z,-4.30
2018-02-25T02:12:24.885Z,-4.30
2018-02-25T02:14:53.115Z,-4.40
2018-02-25T02:17:20.574Z,-4.40
2018-02-25T02:19:48.050Z,-4.50
2018-02-25T02:22:15.501Z,-4.40
2018-02-25T02:24:42.971Z,-4.40
2018-02-25T02:27:10.447Z,-4.30
2018-02-25T02:29:38.665Z,-4.50
2018-02-25T02:32:06.127Z,-4.50
2018-02-25T02:34:34.367Z,-4.50
2018-02-25T02:37:01.818Z,-4.50
2018-02-25T02:39:29.279Z,-4.50
2018-02-25T02:41:56.768Z,-4.40
2018-02-25T02:44:24.224Z,-4.40
2018-02-25T02:46:51.683Z,-4.40
2018-02-25T02:49:19.142Z,-4.50
2018-02-25T02:51:46.596Z,-4.50
2018-02-25T02:54:14.045Z,-4.50
2018-02-25T02:56:41.526Z,-4.60
2018-02-25T02:59:08.986Z,-4.50
2018-02-25T03:01:36.446Z,-4.50
2018-02-25T03:04:03.918Z,-4.60
2018-02-25T03:06:32.148Z,-4.50
2018-02-25T03:08:59.608Z,-4.50
2018-02-25T03:11:27.083Z,-4.60
2018-02-25T03:13:54.547Z,-4.60
2018-02-25T03:16:22.764Z,-4.80
2018-02-25T03:18:50.360Z,-4.80
2018-02-25T03:21:17.819Z,-4.80
2018-02-25T03:23:45.273Z,-4.80
2018-02-25T03:26:12.751Z,-4.80
2018-02-25T03:28:40.978Z,-4.70
2018-02-25T03:31:08.436Z,-4.80
2018-02-25T03:33:35.902Z,-4.80
2018-02-25T03:36:03.362Z,-4.80
2018-02-25T03:38:30.817Z,-4.90
2018-02-25T03:40:58.285Z,-4.80
2018-02-25T03:43:25.741Z,-4.80
2018-02-25T03:45:53.193Z,-4.90
2018-02-25T03:48:20.667Z,-5.00
2018-02-25T03:50:48.889Z,-4.90
2018-02-25T03:53:16.354Z,-4.90
2018-02-25T03:55:43.814Z,-4.90
2018-02-25T03:58:11.279Z,-4.90
2018-02-25T04:00:38.734Z,-5.00
2018-02-25T04:03:06.965Z,-5.10
2018-02-25T04:05:34.765Z,-5.10
2018-02-25T04:08:02.226Z,-5.00
2018-02-25T04:10:29.695Z,-5.00
2018-02-25T04:12:57.150Z,-5.10
2018-02-25T04:15:24.611Z,-5.30
2018-02-25T04:17:52.178Z,-5.40
2018-02-25T04:20:20.400Z,-5.40
2018-02-25T04:22:47.857Z,-5.40
2018-02-25T04:25:15.334Z,-5.40
2018-02-25T04:27:42.791Z,-5.30
2018-02-25T04:30:10.245Z,-5.30
2018-02-25T04:32:37.726Z,-5.30
2018-02-25T04:35:05.191Z,-5.30
2018-02-25T04:37:33.401Z,-5.30
2018-02-25T04:40:00.874Z,-5.30
2018-02-25T04:42:28.336Z,-5.40
2018-02-25T04:44:55.794Z,-5.30
2018-02-25T04:47:23.287Z,-5.40
2018-02-25T04:49:51.508Z,-5.40
2018-02-25T04:52:18.973Z,-5.40
2018-02-25T04:54:46.470Z,-5.40
2018-02-25T04:57:13.922Z,-5.40
2018-02-25T04:59:42.146Z,-5.50
2018-02-25T05:02:09.611Z,-5.60
2018-02-25T05:04:37.071Z,-5.60
2018-02-25T05:07:04.567Z,-5.50
2018-02-25T05:09:32.806Z,-5.50
2018-02-25T05:12:00.274Z,-5.50
2018-02-25T05:14:27.734Z,-5.50
2018-02-25T05:16:55.202Z,-5.70
2018-02-25T05:19:22.665Z,-5.80
2018-02-25T05:21:50.886Z,-5.80
2018-02-25T05:24:18.357Z,-5.80
2018-02-25T05:26:45.820Z,-5.90
2018-02-25T05:29:13.278Z,-5.90
2018-02-25T05:31:40.753Z,-5.80
2018-02-25T05:34:08.212Z,-5.70
2018-02-25T05:36:36.433Z,-5.80
2018-02-25T05:39:03.907Z,-5.80
2018-02-25T05:41:31.371Z,-5.70
2018-02-25T05:43:58.827Z,-5.70
2018-02-25T05:46:26.293Z,-5.70
2018-02-25T05:48:53.772Z,-5.80
2018-02-25T05:51:22.000Z,-5.80
2018-02-25T05:53:49.464Z,-5.80
2018-02-25T05:56:16.922Z,-5.70
2018-02-25T05:58:44.385Z,-5.80
2018-02-25T06:01:11.850Z,-5.80
2018-02-25T06:03:39.321Z,-5.80
2018-02-25T06:06:06.768Z,-5.80
2018-02-25T06:08:34.234Z,-5.80
2018-02-25T06:11:02.469Z,-5.80
2018-02-25T06:13:29.931Z,-5.80
2018-02-25T06:15:57.413Z,-5.80
2018-02-25T06:18:24.865Z,-5.90
2018-02-25T06:20:52.326Z,-5.90
2018-02-25T06:23:19.793Z,-5.90
2018-02-25T06:25:48.025Z,-5.80
2018-02-25T06:28:15.494Z,-5.80
2018-02-25T06:30:42.965Z,-5.80
2018-02-25T06:33:10.421Z,-5.80
2018-02-25T06:35:37.873Z,-5.80
2018-02-25T06:38:05.354Z,-5.80
2018-02-25T06:40:32.813Z,-5.80
2018-02-25T06:43:01.033Z,-5.90
2018-02-25T06:45:28.506Z,-5.90
2018-02-25T06:47:55.962Z,-5.90
2018-02-25T06:50:23.425Z,-5.90
2018-02-25T06:52:50.904Z,-5.90
2018-02-25T06:55:19.122Z,-6.00
2018-02-25T06:57:46.581Z,-6.00
2018-02-25T07:00:14.068Z,-6.00
2018-02-25T07:02:41.522Z,-6.00
2018-02-25T07:05:09.048Z,-6.00
2018-02-25T07:07:36.659Z,-5.90
2018-02-25T07:10:04.894Z,-5.90
2018-02-25T07:12:32.350Z,-5.90
2018-02-25T07:14:59.823Z,-5.90
2018-02-25T07:17:27.288Z,-5.90
2018-02-25T07:19:54.742Z,-6.00
2018-02-25T07:22:22.999Z,-6.00
2018-02-25T07:24:50.466Z,-6.00
2018-02-25T07:27:17.926Z,-6.10
2018-02-25T07:29:45.398Z,-6.00
2018-02-25T07:32:13.673Z,-6.10
2018-02-25T07:34:41.968Z,-6.10
2018-02-25T07:37:09.457Z,-6.10
2018-02-25T07:39:36.938Z,-6.00
2018-02-25T07:42:04.405Z,-5.90
2018-02-25T07:44:31.877Z,-5.90
2018-02-25T07:46:59.337Z,-5.90
2018-02-25T07:49:26.797Z,-5.90
2018-02-25T07:51:54.273Z,-5.90
2018-02-25T07:54:21.737Z,-6.00
2018-02-25T07:56:49.194Z,-5.90
2018-02-25T07:59:16.683Z,-5.80
2018-02-25T08:01:44.146Z,-5.90
2018-02-25T08:04:11.610Z,-5.90
2018-02-25T08:06:39.842Z,-5.90
2018-02-25T08:09:07.304Z,-5.90
2018-02-25T08:11:34.769Z,-5.80
2018-02-25T08:14:02.249Z,-5.80
2018-02-25T08:16:30.483Z,-5.70
2018-02-25T08:18:58.108Z,-5.70
2018-02-25T08:21:25.585Z,-5.70
2018-02-25T08:23:53.049Z,-5.70
2018-02-25T08:26:20.513Z,-5.70
2018-02-25T08:28:48.023Z,-5.60
2018-02-25T08:31:15.486Z,-5.60
2018-02-25T08:33:42.956Z,-5.60
2018-02-25T08:36:10.421Z,-5.50
2018-02-25T08:38:37.881Z,-5.50
2018-02-25T08:41:06.136Z,-5.40
2018-02-25T08:43:33.629Z,-5.40
2018-02-25T08:46:01.108Z,-5.40
2018-02-25T08:48:28.573Z,-5.30
2018-02-25T08:50:56.815Z,-5.30
2018-02-25T08:53:24.257Z,-5.30
2018-02-25T08:55:51.721Z,-5.30
2018-02-25T08:58:19.204Z,-5.30
2018-02-25T09:00:46.658Z,-5.20
2018-02-25T09:03:14.119Z,-5.10
2018-02-25T09:05:42.359Z,-5.10
2018-02-25T09:08:09.822Z,-5.10
2018-02-25T09:10:37.327Z,-5.10
2018-02-25T09:13:04.799Z,-5.00
2018-02-25T09:15:32.267Z,-5.00
2018-02-25T09:17:59.720Z,-4.90
2018-02-25T09:20:27.347Z,-4.90
2018-02-25T09:22:55.561Z,-4.80
2018-02-25T09:25:23.045Z,-4.80
2018-02-25T09:27:50.497Z,-4.70
2018-02-25T09:30:17.958Z,-4.70
2018-02-25T09:32:45.410Z,-4.70
2018-02-25T09:35:13.613Z,-4.60
2018-02-25T09:37:41.837Z,-4.50
2018-02-25T09:40:09.317Z,-4.50
2018-02-25T09:42:36.797Z,-4.40
2018-02-25T09:45:05.019Z,-4.40
2018-02-25T09:47:32.487Z,-4.40
2018-02-25T09:49:59.954Z,-4.30
2018-02-25T09:52:27.413Z,-4.20
2018-02-25T09:54:54.868Z,-4.10
2018-02-25T09:57:22.355Z,-4.00
2018-02-25T09:59:50.583Z,-3.90
2018-02-25T10:02:18.066Z,-4.00
2018-02-25T10:04:45.537Z,-3.90
2018-02-25T10:07:13.851Z,-3.70
2018-02-25T10:09:41.321Z,-3.80
2018-02-25T10:12:08.789Z,-3.60
2018-02-25T10:14:36.253Z,-3.60
2018-02-25T10:17:03.721Z,-3.50
2018-02-25T10:19:31.192Z,-3.40
2018-02-25T10:21:59.425Z,-3.40
2018-02-25T10:24:26.889Z,-3.40
2018-02-25T10:26:54.377Z,-3.30
2018-02-25T10:29:22.598Z,-3.20
2018-02-25T10:31:50.826Z,-3.10
2018-02-25T10:34:19.069Z,-3.10
2018-02-25T10:36:46.542Z,-3.10
2018-02-25T10:39:14.773Z,-3.10
2018-02-25T10:41:48.202Z,-3.10
2018-02-25T10:44:15.661Z,-3.00
2018-02-25T10:46:43.133Z,-3.00
2018-02-25T10:49:11.390Z,-2.80
2018-02-25T10:51:39.003Z,-2.90
2018-02-25T10:54:06.542Z,-2.80
2018-02-25T10:56:34.035Z,-2.80
2018-02-25T10:59:01.497Z,-2.80
2018-02-25T11:01:28.968Z,-2.90
2018-02-25T11:03:56.450Z,-2.90
2018-02-25T11:06:24.675Z,-2.60
2018-02-25T11:08:52.221Z,-2.60
2018-02-25T11:11:19.697Z,-2.50
2018-02-25T11:13:47.185Z,-2.40
2018-02-25T11:16:15.408Z,-2.10
2018-02-25T11:18:42.881Z,-2.20
2018-02-25T11:21:10.338Z,-2.10
2018-02-25T11:23:37.801Z,-2.00
2018-02-25T11:26:05.317Z,-2.00
2018-02-25T11:28:32.725Z,-2.00
2018-02-25T11:31:00.326Z,-2.00
2018-02-25T11:33:27.799Z,-1.90
2018-02-25T11:35:55.250Z,-1.80
2018-02-25T11:38:22.718Z,-1.70
2018-02-25T11:40:50.218Z,-1.70
2018-02-25T11:43:17.668Z,-1.70
2018-02-25T11:45:46.284Z,-1.50
2018-02-25T11:48:13.771Z,-1.50
2018-02-25T11:50:41.230Z,-1.40
2018-02-25T11:53:08.692Z,-1.30
2018-02-25T11:55:36.161Z,-1.30
2018-02-25T11:58:03.623Z,-1.30
2018-02-25T12:00:31.086Z,-1.20
2018-02-25T12:02:58.558Z,-1.10
2018-02-25T12:05:26.785Z,-1.00
2018-02-25T12:07:54.257Z,-1.00
2018-02-25T12:10:21.733Z,-1.00
2018-02-25T12:12:50.028Z,-0.70
2018-02-25T12:15:17.549Z,-0.70
2018-02-25T12:17:45.090Z,-0.50
2018-02-25T12:20:12.557Z,-0.40
2018-02-25T12:22:40.097Z,-0.10
2018-02-25T12:25:07.591Z,0.10
2018-02-25T12:27:35.812Z,0.40
2018-02-25T12:30:03.276Z,0.40
2018-02-25T12:32:30.765Z,0.60
2018-02-25T12:34:58.230Z,0.80
2018-02-25T12:37:25.695Z,0.90
2018-02-25T12:39:53.949Z,1.00
2018-02-25T12:42:21.411Z,1.00
2018-02-25T12:44:48.869Z,1.30
2018-02-25T12:47:17.162Z,1.70
2018-02-25T12:49:45.540Z,1.80
2018-02-25T12:52:13.780Z,1.90
2018-02-25T12:54:41.238Z,1.90
2018-02-25T12:57:08.705Z,2.00
2018-02-25T12:59:36.184Z,2.20
2018-02-25T13:02:03.682Z,2.30
2018-02-25T13:04:31.726Z,2.50
2018-02-25T13:06:59.170Z,2.60
2018-02-25T13:09:26.649Z,2.90
2018-02-25T13:11:54.108Z,2.90
2018-02-25T13:14:22.279Z,3.30
2018-02-25T13:16:49.735Z,3.60
2018-02-25T13:19:17.193Z,4.00
2018-02-25T13:21:44.647Z,4.40
2018-02-25T13:24:12.124Z,4.70
2018-02-25T13:26:39.590Z,4.90
2018-02-25T13:29:07.046Z,4.90
2018-02-25T13:31:35.285Z,5.70
2018-02-25T13:34:02.748Z,5.70
2018-02-25T13:36:30.417Z,5.90
2018-02-25T13:38:58.648Z,6.20
2018-02-25T13:41:26.879Z,6.90
2018-02-25T13:43:54.349Z,6.80
2018-02-25T13:46:21.818Z,7.50
2018-02-25T13:48:50.038Z,8.00
2018-02-25T13:51:17.510Z,8.00
2018-02-25T13:53:45.739Z,7.10
2018-02-25T13:56:13.964Z,6.40
2018-02-25T13:58:41.422Z,6.40
2018-02-25T14:01:08.900Z,5.80
2018-02-25T14:03:36.359Z,5.60
2018-02-25T14:06:03.809Z,5.60
2018-02-25T14:08:31.477Z,5.60
2018-02-25T14:11:00.039Z,5.60
2018-02-25T14:13:27.650Z,5.60
2018-02-25T14:15:55.124Z,5.70
2018-02-25T14:18:22.579Z,5.60
2018-02-25T14:20:50.038Z,5.80
2018-02-25T14:23:17.498Z,5.90
2018-02-25T14:25:44.975Z,6.00
2018-02-25T14:28:12.443Z,5.80
2018-02-25T14:30:39.918Z,5.60
2018-02-25T14:33:08.147Z,5.10
2018-02-25T14:35:35.605Z,5.10
2018-02-25T14:38:03.087Z,4.80
2018-02-25T14:40:31.314Z,4.20
2018-02-25T14:42:58.769Z,4.20
2018-02-25T14:45:26.238Z,4.10
2018-02-25T14:47:53.706Z,4.00
2018-02-25T14:50:21.171Z,3.80
2018-02-25T14:52:48.683Z,3.60
2018-02-25T14:55:16.162Z,3.40
2018-02-25T14:57:43.614Z,3.30
2018-02-25T15:00:11.078Z,3.40
2018-02-25T15:02:38.535Z,3.30
2018-02-25T15:05:06.003Z,3.30
2018-02-25T15:07:33.474Z,3.40
2018-02-25T15:10:00.936Z,3.30
2018-02-25T15:12:29.158Z,3.50
2018-02-25T15:14:56.633Z,3.50
2018-02-25T15:17:24.094Z,3.70
2018-02-25T15:19:51.545Z,3.80
2018-02-25T15:22:19.018Z,3.90
2018-02-25T15:24:46.483Z,4.00
2018-02-25T15:27:13.930Z,3.90
2018-02-25T15:29:41.402Z,3.90
2018-02-25T15:32:09.629Z,3.80
2018-02-25T15:34:37.085Z,3.80
2018-02-25T15:37:04.554Z,3.60
2018-02-25T15:39:32.009Z,3.50
2018-02-25T15:42:00.238Z,3.10
2018-02-25T15:44:27.719Z,3.10
2018-02-25T15:46:55.170Z,2.90
2018-02-25T15:49:22.639Z,2.80
2018-02-25T15:51:50.873Z,2.40
2018-02-25T15:54:19.096Z,2.30
2018-02-25T15:56:46.547Z,2.30
2018-02-25T15:59:14.032Z,2.20
2018-02-25T16:01:41.493Z,2.10
2018-02-25T16:04:09.726Z,1.80
2018-02-25T16:06:37.231Z,1.80
2018-02-25T16:09:04.682Z,1.60
2018-02-25T16:11:32.919Z,1.20
2018-02-25T16:14:00.410Z,1.20
2018-02-25T16:16:28.647Z,0.80
2018-02-25T16:18:56.105Z,0.80
2018-02-25T16:21:23.598Z,0.70
2018-02-25T16:23:51.834Z,0.40
2018-02-25T16:26:19.286Z,0.40
2018-02-25T16:28:46.783Z,0.20
2018-02-25T16:31:14.241Z,0.10
2018-02-25T16:33:42.462Z,-0.10
2018-02-25T16:36:09.967Z,-0.10
2018-02-25T16:38:37.422Z,-0.10
2018-02-25T16:41:04.886Z,-0.20
2018-02-25T16:43:33.150Z,-0.30
2018-02-25T16:46:00.610Z,-0.40
2018-02-25T16:48:28.062Z,-0.40
2018-02-25T16:50:55.563Z,-0.40
2018-02-25T16:53:23.024Z,-0.50
2018-02-25T16:55:50.485Z,-0.50
2018-02-25T16:58:17.988Z,-0.60
2018-02-25T17:00:45.433Z,-0.60
2018-02-25T17:03:12.897Z,-0.70
2018-02-25T17:05:40.396Z,-0.80
2018-02-25T17:08:07.858Z,-0.90
2018-02-25T17:10:35.328Z,-1.00
2018-02-25T17:13:02.821Z,-1.00
2018-02-25T17:15:30.294Z,-1.00
2018-02-25T17:17:58.514Z,-1.10
2018-02-25T17:20:26.007Z,-1.10
2018-02-25T17:22:53.459Z,-1.10
2018-02-25T17:25:21.001Z,-1.20
2018-02-25T17:27:48.505Z,-1.20
2018-02-25T17:30:15.965Z,-1.30
2018-02-25T17:32:43.423Z,-1.30
2018-02-25T17:35:10.923Z,-1.30
2018-02-25T17:37:38.381Z,-1.40
2018-02-25T17:40:05.877Z,-1.40
2018-02-25T17:42:34.210Z,-1.60
2018-02-25T17:45:01.686Z,-1.60
2018-02-25T17:47:29.145Z,-1.60
2018-02-25T17:49:56.654Z,-1.60
2018-02-25T17:52:24.114Z,-1.60
2018-02-25T17:54:51.580Z,-1.60
2018-02-25T17:57:19.124Z,-1.90
2018-02-25T17:59:47.269Z,-1.90
2018-02-25T18:02:14.746Z,-1.90
2018-02-25T18:04:42.258Z,-2.00
2018-02-25T18:07:09.714Z,-2.10
2018-02-25T18:09:37.172Z,-2.20
2018-02-25T18:12:04.651Z,-2.10
2018-02-25T18:14:32.913Z,-2.10
2018-02-25T18:17:00.446Z,-2.10
2018-02-25T18:19:27.962Z,-2.20
2018-02-25T18:21:55.366Z,-2.30
2018-02-25T18:24:22.830Z,-2.30
2018-02-25T18:26:51.078Z,-2.50
2018-02-25T18:29:18.574Z,-2.50
2018-02-25T18:31:46.805Z,-2.70
2018-02-25T18:34:14.285Z,-2.70
2018-02-25T18:36:41.768Z,-2.80
2018-02-25T18:39:09.227Z,-2.80
2018-02-25T18:41:36.704Z,-2.70
2018-02-25T18:44:04.174Z,-2.60
2018-02-25T18:46:31.635Z,-2.60
2018-02-25T18:48:59.109Z,-2.70
2018-02-25T18:51:26.576Z,-2.70
2018-02-25T18:53:54.036Z,-2.80
2018-02-25T18:56:21.521Z,-2.80
2018-02-25T18:58:49.035Z,-2.90
2018-02-25T19:01:16.482Z,-3.00
2018-02-25T19:03:44.117Z,-3.10
2018-02-25T19:06:11.568Z,-3.20
2018-02-25T19:08:39.030Z,-3.30
2018-02-25T19:11:06.516Z,-3.40
2018-02-25T19:13:33.986Z,-3.50
2018-02-25T19:16:01.439Z,-3.50
2018-02-25T19:18:28.921Z,-3.60
2018-02-25T19:20:57.150Z,-3.60
2018-02-25T19:23:24.671Z,-3.70
2018-02-25T19:25:52.150Z,-3.60
2018-02-25T19:28:19.613Z,-3.70
2018-02-25T19:30:47.065Z,-3.70
2018-02-25T19:33:15.330Z,-3.80
2018-02-25T19:35:48.509Z,-3.80
2018-02-25T19:38:21.601Z,-3.90
2018-02-25T19:40:54.749Z,-3.90
2018-02-25T19:43:23.018Z,-4.00
2018-02-25T19:45:50.474Z,-4.00
2018-02-25T19:48:17.992Z,-3.90
2018-02-25T19:50:45.468Z,-3.90
2018-02-25T19:53:12.930Z,-3.90
2018-02-25T19:55:40.406Z,-3.90
2018-02-25T19:58:08.662Z,-3.90
2018-02-25T20:00:36.126Z,-3.80
2018-02-25T20:03:03.586Z,-3.90
2018-02-25T20:05:31.381Z,-3.90
2018-02-25T20:07:58.944Z,-3.90
2018-02-25T20:10:26.607Z,-3.90
2018-02-25T20:12:54.090Z,-3.90
2018-02-25T20:15:21.541Z,-4.00
2018-02-25T20:17:49.777Z,-4.00
2018-02-25T20:20:17.249Z,-4.10
2018-02-25T20:22:44.718Z,-4.00
2018-02-25T20:25:12.225Z,-4.00
2018-02-25T20:27:40.462Z,-4.00
2018-02-25T20:30:08.012Z,-4.00
2018-02-25T20:32:35.513Z,-4.00
2018-02-25T20:35:03.786Z,-4.20
2018-02-25T20:37:32.000Z,-4.20
2018-02-25T20:39:59.467Z,-4.20
2018-02-25T20:42:26.954Z,-4.30
2018-02-25T20:44:54.410Z,-4.30
2018-02-25T20:47:21.870Z,-4.20
2018-02-25T20:49:49.341Z,-4.30
2018-02-25T20:52:17.612Z,-4.30
2018-02-25T20:54:45.059Z,-4.30
2018-02-25T20:57:12.530Z,-4.30
2018-02-25T20:59:40.761Z,-4.30
2018-02-25T21:02:09.063Z,-4.40
2018-02-25T21:04:36.529Z,-4.40
2018-02-25T21:07:04.762Z,-4.40
2018-02-25T21:09:32.222Z,-4.40
2018-02-25T21:11:59.695Z,-4.40
2018-02-25T21:14:27.144Z,-4.40
2018-02-25T21:16:54.607Z,-4.50
2018-02-25T21:19:22.088Z,-4.40
2018-02-25T21:21:50.318Z,-4.50
2018-02-25T21:24:17.772Z,-4.50
2018-02-25T21:26:46.015Z,-4.40
2018-02-25T21:29:13.473Z,-4.50
2018-02-25T21:31:41.707Z,-4.40
2018-02-25T21:34:09.241Z,-4.50
2018-02-25T21:36:36.693Z,-4.50
2018-02-25T21:39:04.919Z,-4.60
2018-02-25T21:41:32.414Z,-4.60
2018-02-25T21:43:59.949Z,-4.60
2018-02-25T21:46:27.543Z,-4.60
2018-02-25T21:48:55.267Z,-4.60
2018-02-25T21:51:22.940Z,-4.60
2018-02-25T21:53:50.565Z,-4.60
2018-02-25T21:56:23.844Z,-4.60
2018-02-25T21:58:56.944Z,-4.60
2018-02-25T22:01:30.202Z,-4.60
2018-02-25T22:03:58.098Z,-4.70
2018-02-25T22:06:26.320Z,-4.90
2018-02-25T22:08:54.610Z,-4.90
2018-02-25T22:11:22.070Z,-4.90
2018-02-25T22:13:49.538Z,-4.90
2018-02-25T22:16:17.011Z,-5.00
2018-02-25T22:18:44.466Z,-4.90
2018-02-25T22:21:12.690Z,-5.00
2018-02-25T22:23:40.170Z,-5.00
2018-02-25T22:26:07.628Z,-5.00
2018-02-25T22:28:35.085Z,-5.00
2018-02-25T22:31:02.549Z,-5.00
2018-02-25T22:33:30.028Z,-4.90
2018-02-25T22:35:57.461Z,-4.90
2018-02-25T22:38:24.950Z,-4.90
2018-02-25T22:40:52.403Z,-5.00
2018-02-25T22:43:19.873Z,-5.00
2018-02-25T22:45:47.353Z,-5.00
2018-02-25T22:48:14.809Z,-5.00
2018-02-25T22:50:42.270Z,-5.10
2018-02-25T22:53:09.751Z,-5.10
2018-02-25T22:55:37.463Z,-5.10
2018-02-25T22:58:04.929Z,-5.20
2018-02-25T23:00:32.419Z,-5.20
2018-02-25T23:02:59.872Z,-5.20
2018-02-25T23:05:27.337Z,-5.20
2018-02-25T23:07:54.814Z,-5.20
2018-02-25T23:10:23.037Z,-5.20
2018-02-25T23:12:50.497Z,-5.20
2018-02-25T23:15:17.965Z,-5.20
2018-02-25T23:17:45.443Z,-5.20
2018-02-25T23:20:13.670Z,-5.30
2018-02-25T23:22:41.141Z,-5.30
2018-02-25T23:25:08.602Z,-5.40
2018-02-25T23:27:36.224Z,-5.40
2018-02-25T23:30:05.003Z,-5.40
2018-02-25T23:32:32.451Z,-5.40
2018-02-25T23:34:59.909Z,-5.40
2018-02-25T23:37:27.379Z,-5.50
2018-02-25T23:39:54.839Z,-5.40
2018-02-25T23:42:22.307Z,-5.30
2018-02-25T23:44:49.774Z,-5.40
2018-02-25T23:47:17.234Z,-5.40
2018-02-25T23:49:44.688Z,-5.50
2018-02-25T23:52:12.156Z,-5.50
2018-02-25T23:54:39.613Z,-5.60
2018-02-25T23:57:07.072Z,-5.60
2018-02-25T23:59:35.761Z,-5.70
